sensor_id;sensor_type;location;lat;lon;timestamp;pressure;altitude;pressure_sealevel;temperature;humidity
75536;BME280;64119;52.070;20.804;2024-01-07T00:00:55;100570.65;;;-4.82;83.98
75536;BME280;64119;52.070;20.804;2024-01-07T00:03:43;100568.31;;;-4.89;83.94
75536;BME280;64119;52.070;20.804;2024-01-07T00:06:11;100574.11;;;-4.94;83.95
75536;BME280;64119;52.070;20.804;2024-01-07T00:08:39;100574.20;;;-4.98;84.36
75536;BME280;64119;52.070;20.804;2024-01-07T00:11:07;100574.96;;;-5.03;84.24
75536;BME280;64119;52.070;20.804;2024-01-07T00:13:35;100579.02;;;-5.04;84.00
75536;BME280;64119;52.070;20.804;2024-01-07T00:16:03;100581.46;;;-5.11;84.31
75536;BME280;64119;52.070;20.804;2024-01-07T00:18:31;100581.42;;;-5.16;84.57
75536;BME280;64119;52.070;20.804;2024-01-07T00:21:00;100580.63;;;-5.20;85.08
75536;BME280;64119;52.070;20.804;2024-01-07T00:23:27;100582.61;;;-5.22;84.96
75536;BME280;64119;52.070;20.804;2024-01-07T00:25:55;100584.22;;;-5.23;84.86
75536;BME280;64119;52.070;20.804;2024-01-07T00:28:23;100581.78;;;-5.26;84.96
75536;BME280;64119;52.070;20.804;2024-01-07T00:30:51;100584.89;;;-5.29;85.21
75536;BME280;64119;52.070;20.804;2024-01-07T00:33:19;100586.50;;;-5.33;85.47
75536;BME280;64119;52.070;20.804;2024-01-07T00:35:47;100588.75;;;-5.34;85.19
75536;BME280;64119;52.070;20.804;2024-01-07T00:38:15;100584.40;;;-5.36;85.59
75536;BME280;64119;52.070;20.804;2024-01-07T00:40:43;100593.31;;;-5.39;85.81
75536;BME280;64119;52.070;20.804;2024-01-07T00:43:11;100593.20;;;-5.40;85.72
75536;BME280;64119;52.070;20.804;2024-01-07T00:45:39;100595.58;;;-5.42;85.94
75536;BME280;64119;52.070;20.804;2024-01-07T00:48:07;100598.77;;;-5.44;86.18
75536;BME280;64119;52.070;20.804;2024-01-07T00:50:35;100601.02;;;-5.44;85.42
75536;BME280;64119;52.070;20.804;2024-01-07T00:53:04;100602.74;;;-5.47;85.92
75536;BME280;64119;52.070;20.804;2024-01-07T00:55:31;100607.69;;;-5.50;86.36
75536;BME280;64119;52.070;20.804;2024-01-07T00:57:59;100607.28;;;-5.52;86.69
75536;BME280;64119;52.070;20.804;2024-01-07T01:00:27;100608.34;;;-5.52;86.18
75536;BME280;64119;52.070;20.804;2024-01-07T01:02:56;100613.11;;;-5.54;86.40
75536;BME280;64119;52.070;20.804;2024-01-07T01:05:24;100609.53;;;-5.55;86.73
75536;BME280;64119;52.070;20.804;2024-01-07T01:07:52;100607.70;;;-5.56;86.65
75536;BME280;64119;52.070;20.804;2024-01-07T01:10:20;100609.75;;;-5.56;86.61
75536;BME280;64119;52.070;20.804;2024-01-07T01:12:48;100611.57;;;-5.57;86.98
75536;BME280;64119;52.070;20.804;2024-01-07T01:15:16;100611.55;;;-5.60;87.02
75536;BME280;64119;52.070;20.804;2024-01-07T01:17:44;100612.99;;;-5.62;87.09
75536;BME280;64119;52.070;20.804;2024-01-07T01:20:12;100615.58;;;-5.62;86.66
75536;BME280;64119;52.070;20.804;2024-01-07T01:22:40;100616.33;;;-5.63;86.27
75536;BME280;64119;52.070;20.804;2024-01-07T01:25:08;100617.69;;;-5.66;86.81
75536;BME280;64119;52.070;20.804;2024-01-07T01:27:36;100618.08;;;-5.67;86.55
75536;BME280;64119;52.070;20.804;2024-01-07T01:30:05;100621.66;;;-5.69;86.77
75536;BME280;64119;52.070;20.804;2024-01-07T01:32:33;100626.11;;;-5.72;86.93
75536;BME280;64119;52.070;20.804;2024-01-07T01:35:01;100620.96;;;-5.72;86.90
75536;BME280;64119;52.070;20.804;2024-01-07T01:37:28;100617.00;;;-5.75;87.19
75536;BME280;64119;52.070;20.804;2024-01-07T01:39:56;100617.90;;;-5.73;86.75
75536;BME280;64119;52.070;20.804;2024-01-07T01:42:25;100617.40;;;-5.73;86.78
75536;BME280;64119;52.070;20.804;2024-01-07T01:44:53;100616.27;;;-5.75;87.27
75536;BME280;64119;52.070;20.804;2024-01-07T01:47:24;100614.70;;;-5.74;86.97
75536;BME280;64119;52.070;20.804;2024-01-07T01:49:53;100614.88;;;-5.74;86.91
75536;BME280;64119;52.070;20.804;2024-01-07T01:52:21;100615.06;;;-5.75;87.07
75536;BME280;64119;52.070;20.804;2024-01-07T01:54:49;100614.67;;;-5.74;87.26
75536;BME280;64119;52.070;20.804;2024-01-07T01:57:20;100614.90;;;-5.71;87.16
75536;BME280;64119;52.070;20.804;2024-01-07T01:59:50;100615.71;;;-5.70;87.30
75536;BME280;64119;52.070;20.804;2024-01-07T02:02:18;100615.20;;;-5.67;87.44
75536;BME280;64119;52.070;20.804;2024-01-07T02:04:46;100615.45;;;-5.66;87.27
75536;BME280;64119;52.070;20.804;2024-01-07T02:07:13;100615.02;;;-5.64;87.67
75536;BME280;64119;52.070;20.804;2024-01-07T02:09:42;100612.81;;;-5.62;87.60
75536;BME280;64119;52.070;20.804;2024-01-07T02:12:10;100607.92;;;-5.57;87.31
75536;BME280;64119;52.070;20.804;2024-01-07T02:14:39;100607.39;;;-5.57;87.39
75536;BME280;64119;52.070;20.804;2024-01-07T02:17:07;100605.18;;;-5.54;87.17
75536;BME280;64119;52.070;20.804;2024-01-07T02:19:35;100603.41;;;-5.53;87.27
75536;BME280;64119;52.070;20.804;2024-01-07T02:22:04;100608.48;;;-5.51;87.19
75536;BME280;64119;52.070;20.804;2024-01-07T02:24:31;100604.98;;;-5.51;87.56
75536;BME280;64119;52.070;20.804;2024-01-07T02:27:00;100606.16;;;-5.50;87.11
75536;BME280;64119;52.070;20.804;2024-01-07T02:29:31;100602.69;;;-5.49;87.10
75536;BME280;64119;52.070;20.804;2024-01-07T02:31:58;100604.13;;;-5.51;87.55
75536;BME280;64119;52.070;20.804;2024-01-07T02:34:26;100598.84;;;-5.52;87.33
75536;BME280;64119;52.070;20.804;2024-01-07T02:36:54;100600.48;;;-5.51;87.16
75536;BME280;64119;52.070;20.804;2024-01-07T02:39:22;100604.01;;;-5.48;87.06
75536;BME280;64119;52.070;20.804;2024-01-07T02:41:50;100599.91;;;-5.49;87.12
75536;BME280;64119;52.070;20.804;2024-01-07T02:44:18;100598.90;;;-5.49;87.05
75536;BME280;64119;52.070;20.804;2024-01-07T02:46:46;100599.05;;;-5.49;87.23
75536;BME280;64119;52.070;20.804;2024-01-07T02:49:14;100600.21;;;-5.49;87.28
75536;BME280;64119;52.070;20.804;2024-01-07T02:51:42;100600.38;;;-5.48;87.02
75536;BME280;64119;52.070;20.804;2024-01-07T02:54:12;100599.86;;;-5.51;87.35
75536;BME280;64119;52.070;20.804;2024-01-07T02:56:40;100596.70;;;-5.53;87.10
75536;BME280;64119;52.070;20.804;2024-01-07T02:59:08;100599.30;;;-5.54;87.09
75536;BME280;64119;52.070;20.804;2024-01-07T03:01:36;100604.40;;;-5.52;87.22
75536;BME280;64119;52.070;20.804;2024-01-07T03:04:10;100604.15;;;-5.54;87.41
75536;BME280;64119;52.070;20.804;2024-01-07T03:06:38;100606.41;;;-5.55;86.76
75536;BME280;64119;52.070;20.804;2024-01-07T03:09:07;100607.83;;;-5.55;87.13
75536;BME280;64119;52.070;20.804;2024-01-07T03:11:39;100607.38;;;-5.56;87.09
75536;BME280;64119;52.070;20.804;2024-01-07T03:14:07;100606.95;;;-5.58;87.49
75536;BME280;64119;52.070;20.804;2024-01-07T03:16:35;100601.79;;;-5.58;87.19
75536;BME280;64119;52.070;20.804;2024-01-07T03:19:03;100604.08;;;-5.59;87.30
75536;BME280;64119;52.070;20.804;2024-01-07T03:21:32;100606.16;;;-5.63;87.46
75536;BME280;64119;52.070;20.804;2024-01-07T03:24:00;100604.73;;;-5.62;87.52
75536;BME280;64119;52.070;20.804;2024-01-07T03:26:30;100602.55;;;-5.63;87.51
75536;BME280;64119;52.070;20.804;2024-01-07T03:29:00;100599.25;;;-5.62;87.31
75536;BME280;64119;52.070;20.804;2024-01-07T03:31:29;100605.43;;;-5.62;87.57
75536;BME280;64119;52.070;20.804;2024-01-07T03:33:58;100607.17;;;-5.62;87.85
75536;BME280;64119;52.070;20.804;2024-01-07T03:36:26;100605.96;;;-5.62;88.02
75536;BME280;64119;52.070;20.804;2024-01-07T03:38:54;100603.38;;;-5.62;87.99
75536;BME280;64119;52.070;20.804;2024-01-07T03:41:22;100608.91;;;-5.62;87.70
75536;BME280;64119;52.070;20.804;2024-01-07T03:43:50;100610.15;;;-5.63;87.70
75536;BME280;64119;52.070;20.804;2024-01-07T03:46:18;100608.95;;;-5.64;87.69
75536;BME280;64119;52.070;20.804;2024-01-07T03:48:46;100612.30;;;-5.65;87.84
75536;BME280;64119;52.070;20.804;2024-01-07T03:51:14;100613.04;;;-5.66;87.55
75536;BME280;64119;52.070;20.804;2024-01-07T03:53:42;100612.98;;;-5.68;87.46
75536;BME280;64119;52.070;20.804;2024-01-07T03:56:09;100618.46;;;-5.70;87.66
75536;BME280;64119;52.070;20.804;2024-01-07T03:58:37;100617.04;;;-5.73;88.03
75536;BME280;64119;52.070;20.804;2024-01-07T04:01:05;100619.90;;;-5.75;87.58
75536;BME280;64119;52.070;20.804;2024-01-07T04:03:33;100614.92;;;-5.78;87.74
75536;BME280;64119;52.070;20.804;2024-01-07T04:06:01;100619.13;;;-5.80;87.85
75536;BME280;64119;52.070;20.804;2024-01-07T04:08:29;100618.06;;;-5.83;87.97
75536;BME280;64119;52.070;20.804;2024-01-07T04:10:57;100618.61;;;-5.83;87.90
75536;BME280;64119;52.070;20.804;2024-01-07T04:13:25;100621.74;;;-5.84;87.68
75536;BME280;64119;52.070;20.804;2024-01-07T04:15:52;100624.25;;;-5.85;87.59
75536;BME280;64119;52.070;20.804;2024-01-07T04:18:20;100620.57;;;-5.87;87.95
75536;BME280;64119;52.070;20.804;2024-01-07T04:20:48;100622.52;;;-5.88;87.96
75536;BME280;64119;52.070;20.804;2024-01-07T04:23:16;100620.41;;;-5.94;88.29
75536;BME280;64119;52.070;20.804;2024-01-07T04:25:44;100620.44;;;-5.98;87.88
75536;BME280;64119;52.070;20.804;2024-01-07T04:28:12;100627.31;;;-6.01;88.10
75536;BME280;64119;52.070;20.804;2024-01-07T04:30:40;100622.42;;;-6.06;88.04
75536;BME280;64119;52.070;20.804;2024-01-07T04:33:08;100624.41;;;-6.08;88.09
75536;BME280;64119;52.070;20.804;2024-01-07T04:35:36;100625.36;;;-6.10;88.14
75536;BME280;64119;52.070;20.804;2024-01-07T04:38:04;100627.55;;;-6.16;88.14
75536;BME280;64119;52.070;20.804;2024-01-07T04:40:32;100628.09;;;-6.20;88.06
75536;BME280;64119;52.070;20.804;2024-01-07T04:43:00;100628.07;;;-6.23;88.06
75536;BME280;64119;52.070;20.804;2024-01-07T04:45:27;100629.88;;;-6.24;87.88
75536;BME280;64119;52.070;20.804;2024-01-07T04:47:55;100630.79;;;-6.25;88.02
75536;BME280;64119;52.070;20.804;2024-01-07T04:50:23;100628.04;;;-6.29;87.98
75536;BME280;64119;52.070;20.804;2024-01-07T04:52:51;100631.57;;;-6.31;88.19
75536;BME280;64119;52.070;20.804;2024-01-07T04:55:19;100629.80;;;-6.33;88.42
75536;BME280;64119;52.070;20.804;2024-01-07T04:57:47;100633.77;;;-6.33;88.36
75536;BME280;64119;52.070;20.804;2024-01-07T05:00:15;100636.28;;;-6.35;88.42
75536;BME280;64119;52.070;20.804;2024-01-07T05:02:43;100632.95;;;-6.38;88.79
75536;BME280;64119;52.070;20.804;2024-01-07T05:05:10;100633.16;;;-6.38;88.79
75536;BME280;64119;52.070;20.804;2024-01-07T05:07:38;100634.57;;;-6.39;88.65
75536;BME280;64119;52.070;20.804;2024-01-07T05:10:06;100635.44;;;-6.39;88.32
75536;BME280;64119;52.070;20.804;2024-01-07T05:12:35;100635.45;;;-6.39;88.46
75536;BME280;64119;52.070;20.804;2024-01-07T05:15:03;100643.33;;;-6.39;88.47
75536;BME280;64119;52.070;20.804;2024-01-07T05:17:31;100643.58;;;-6.40;88.41
75536;BME280;64119;52.070;20.804;2024-01-07T05:19:59;100649.45;;;-6.41;88.54
75536;BME280;64119;52.070;20.804;2024-01-07T05:22:27;100653.59;;;-6.41;88.38
75536;BME280;64119;52.070;20.804;2024-01-07T05:24:55;100656.30;;;-6.40;88.23
75536;BME280;64119;52.070;20.804;2024-01-07T05:27:23;100652.88;;;-6.40;88.76
75536;BME280;64119;52.070;20.804;2024-01-07T05:29:51;100660.96;;;-6.40;89.08
75536;BME280;64119;52.070;20.804;2024-01-07T05:32:21;100660.77;;;-6.40;88.45
75536;BME280;64119;52.070;20.804;2024-01-07T05:34:49;100664.40;;;-6.41;88.40
75536;BME280;64119;52.070;20.804;2024-01-07T05:37:18;100667.39;;;-6.38;88.30
75536;BME280;64119;52.070;20.804;2024-01-07T05:39:46;100663.42;;;-6.38;88.54
75536;BME280;64119;52.070;20.804;2024-01-07T05:42:15;100666.36;;;-6.38;88.33
75536;BME280;64119;52.070;20.804;2024-01-07T05:44:43;100665.63;;;-6.41;88.58
75536;BME280;64119;52.070;20.804;2024-01-07T05:47:11;100668.14;;;-6.43;88.84
75536;BME280;64119;52.070;20.804;2024-01-07T05:49:39;100664.98;;;-6.41;88.78
75536;BME280;64119;52.070;20.804;2024-01-07T05:52:06;100663.29;;;-6.39;88.53
75536;BME280;64119;52.070;20.804;2024-01-07T05:54:34;100663.36;;;-6.41;88.56
75536;BME280;64119;52.070;20.804;2024-01-07T05:57:03;100662.61;;;-6.39;88.39
75536;BME280;64119;52.070;20.804;2024-01-07T05:59:31;100663.88;;;-6.40;88.40
75536;BME280;64119;52.070;20.804;2024-01-07T06:01:59;100660.49;;;-6.41;89.03
75536;BME280;64119;52.070;20.804;2024-01-07T06:04:27;100664.63;;;-6.41;88.49
75536;BME280;64119;52.070;20.804;2024-01-07T06:06:55;100662.45;;;-6.43;88.41
75536;BME280;64119;52.070;20.804;2024-01-07T06:09:23;100662.23;;;-6.42;88.21
75536;BME280;64119;52.070;20.804;2024-01-07T06:11:52;100662.64;;;-6.43;88.80
75536;BME280;64119;52.070;20.804;2024-01-07T06:14:21;100661.89;;;-6.42;89.25
75536;BME280;64119;52.070;20.804;2024-01-07T06:16:48;100662.49;;;-6.40;88.75
75536;BME280;64119;52.070;20.804;2024-01-07T06:19:16;100662.78;;;-6.39;88.63
75536;BME280;64119;52.070;20.804;2024-01-07T06:21:45;100665.23;;;-6.40;88.80
75536;BME280;64119;52.070;20.804;2024-01-07T06:24:13;100666.01;;;-6.38;88.60
75536;BME280;64119;52.070;20.804;2024-01-07T06:26:41;100672.52;;;-6.37;88.42
75536;BME280;64119;52.070;20.804;2024-01-07T06:29:09;100676.95;;;-6.37;89.15
75536;BME280;64119;52.070;20.804;2024-01-07T06:31:43;100684.56;;;-6.34;88.93
75536;BME280;64119;52.070;20.804;2024-01-07T06:34:13;100685.89;;;-6.33;89.09
75536;BME280;64119;52.070;20.804;2024-01-07T06:36:42;100688.23;;;-6.28;88.80
75536;BME280;64119;52.070;20.804;2024-01-07T06:39:10;100690.20;;;-6.23;88.78
75536;BME280;64119;52.070;20.804;2024-01-07T06:41:38;100690.35;;;-6.19;88.66
75536;BME280;64119;52.070;20.804;2024-01-07T06:44:06;100696.45;;;-6.17;88.56
75536;BME280;64119;52.070;20.804;2024-01-07T06:46:33;100693.13;;;-6.16;88.52
75536;BME280;64119;52.070;20.804;2024-01-07T06:49:04;100701.13;;;-6.14;88.15
75536;BME280;64119;52.070;20.804;2024-01-07T06:51:32;100702.05;;;-6.16;88.12
75536;BME280;64119;52.070;20.804;2024-01-07T06:54:00;100706.94;;;-6.17;87.95
75536;BME280;64119;52.070;20.804;2024-01-07T06:56:28;100710.45;;;-6.18;88.02
75536;BME280;64119;52.070;20.804;2024-01-07T06:58:56;100705.48;;;-6.18;87.92
75536;BME280;64119;52.070;20.804;2024-01-07T07:01:23;100711.62;;;-6.21;87.97
75536;BME280;64119;52.070;20.804;2024-01-07T07:03:51;100715.06;;;-6.24;87.97
75536;BME280;64119;52.070;20.804;2024-01-07T07:06:20;100718.50;;;-6.28;87.81
75536;BME280;64119;52.070;20.804;2024-01-07T07:08:48;100718.39;;;-6.29;87.74
75536;BME280;64119;52.070;20.804;2024-01-07T07:11:16;100717.21;;;-6.33;88.03
75536;BME280;64119;52.070;20.804;2024-01-07T07:13:43;100720.86;;;-6.34;87.76
75536;BME280;64119;52.070;20.804;2024-01-07T07:16:11;100723.10;;;-6.38;88.00
75536;BME280;64119;52.070;20.804;2024-01-07T07:18:40;100724.21;;;-6.39;87.90
75536;BME280;64119;52.070;20.804;2024-01-07T07:21:08;100724.91;;;-6.40;88.14
75536;BME280;64119;52.070;20.804;2024-01-07T07:23:35;100730.27;;;-6.40;88.60
75536;BME280;64119;52.070;20.804;2024-01-07T07:26:03;100729.66;;;-6.41;88.41
75536;BME280;64119;52.070;20.804;2024-01-07T07:28:31;100732.70;;;-6.41;88.53
75536;BME280;64119;52.070;20.804;2024-01-07T07:30:59;100727.39;;;-6.41;88.49
75536;BME280;64119;52.070;20.804;2024-01-07T07:33:27;100731.39;;;-6.38;88.54
75536;BME280;64119;52.070;20.804;2024-01-07T07:35:55;100734.70;;;-6.36;88.48
75536;BME280;64119;52.070;20.804;2024-01-07T07:38:23;100737.33;;;-6.33;88.05
75536;BME280;64119;52.070;20.804;2024-01-07T07:40:51;100738.11;;;-6.31;87.83
75536;BME280;64119;52.070;20.804;2024-01-07T07:43:21;100739.64;;;-6.31;87.89
75536;BME280;64119;52.070;20.804;2024-01-07T07:45:49;100742.52;;;-6.30;87.73
75536;BME280;64119;52.070;20.804;2024-01-07T07:48:18;100741.11;;;-6.29;87.85
75536;BME280;64119;52.070;20.804;2024-01-07T07:50:46;100734.84;;;-6.31;88.08
75536;BME280;64119;52.070;20.804;2024-01-07T07:53:14;100742.86;;;-6.30;87.81
75536;BME280;64119;52.070;20.804;2024-01-07T07:55:41;100741.02;;;-6.27;87.63
75536;BME280;64119;52.070;20.804;2024-01-07T07:58:09;100737.66;;;-6.26;87.67
75536;BME280;64119;52.070;20.804;2024-01-07T08:00:37;100739.53;;;-6.25;87.59
75536;BME280;64119;52.070;20.804;2024-01-07T08:03:06;100744.43;;;-6.27;87.53
75536;BME280;64119;52.070;20.804;2024-01-07T08:05:34;100747.21;;;-6.28;87.58
75536;BME280;64119;52.070;20.804;2024-01-07T08:08:01;100750.47;;;-6.24;87.91
75536;BME280;64119;52.070;20.804;2024-01-07T08:10:29;100752.41;;;-6.21;87.69
75536;BME280;64119;52.070;20.804;2024-01-07T08:12:59;100753.14;;;-6.18;87.24
75536;BME280;64119;52.070;20.804;2024-01-07T08:15:27;100755.94;;;-6.16;87.34
75536;BME280;64119;52.070;20.804;2024-01-07T08:17:55;100759.81;;;-6.14;87.11
75536;BME280;64119;52.070;20.804;2024-01-07T08:20:23;100763.15;;;-6.12;86.98
75536;BME280;64119;52.070;20.804;2024-01-07T08:22:51;100762.08;;;-6.11;87.10
75536;BME280;64119;52.070;20.804;2024-01-07T08:25:18;100762.90;;;-6.07;87.05
75536;BME280;64119;52.070;20.804;2024-01-07T08:27:46;100763.43;;;-6.03;86.78
75536;BME280;64119;52.070;20.804;2024-01-07T08:30:18;100770.24;;;-5.98;86.88
75536;BME280;64119;52.070;20.804;2024-01-07T08:32:46;100773.47;;;-5.94;86.72
75536;BME280;64119;52.070;20.804;2024-01-07T08:35:14;100775.95;;;-5.88;86.41
75536;BME280;64119;52.070;20.804;2024-01-07T08:37:46;100778.85;;;-5.84;86.63
75536;BME280;64119;52.070;20.804;2024-01-07T08:40:14;100774.75;;;-5.82;86.17
75536;BME280;64119;52.070;20.804;2024-01-07T08:42:42;100775.58;;;-5.81;85.96
75536;BME280;64119;52.070;20.804;2024-01-07T08:45:11;100774.16;;;-5.81;86.06
75536;BME280;64119;52.070;20.804;2024-01-07T08:47:39;100777.88;;;-5.79;85.58
75536;BME280;64119;52.070;20.804;2024-01-07T08:50:11;100778.66;;;-5.74;86.14
75536;BME280;64119;52.070;20.804;2024-01-07T08:52:40;100778.46;;;-5.70;86.14
75536;BME280;64119;52.070;20.804;2024-01-07T08:55:08;100775.54;;;-5.67;85.88
75536;BME280;64119;52.070;20.804;2024-01-07T08:57:38;100778.80;;;-5.67;85.34
75536;BME280;64119;52.070;20.804;2024-01-07T09:00:08;100782.66;;;-5.65;85.50
75536;BME280;64119;52.070;20.804;2024-01-07T09:02:36;100784.98;;;-5.63;85.14
75536;BME280;64119;52.070;20.804;2024-01-07T09:05:09;100780.80;;;-5.62;85.15
75536;BME280;64119;52.070;20.804;2024-01-07T09:07:38;100780.96;;;-5.58;85.02
75536;BME280;64119;52.070;20.804;2024-01-07T09:10:06;100782.01;;;-5.55;84.60
75536;BME280;64119;52.070;20.804;2024-01-07T09:12:39;100780.98;;;-5.56;84.08
75536;BME280;64119;52.070;20.804;2024-01-07T09:15:07;100784.53;;;-5.54;84.86
75536;BME280;64119;52.070;20.804;2024-01-07T09:17:36;100784.85;;;-5.54;84.45
75536;BME280;64119;52.070;20.804;2024-01-07T09:20:07;100787.47;;;-5.54;84.47
75536;BME280;64119;52.070;20.804;2024-01-07T09:22:36;100788.73;;;-5.52;84.77
75536;BME280;64119;52.070;20.804;2024-01-07T09:25:05;100791.73;;;-5.50;84.64
75536;BME280;64119;52.070;20.804;2024-01-07T09:27:33;100792.89;;;-5.52;84.26
75536;BME280;64119;52.070;20.804;2024-01-07T09:30:02;100789.58;;;-5.51;83.97
75536;BME280;64119;52.070;20.804;2024-01-07T09:32:30;100783.95;;;-5.49;84.15
75536;BME280;64119;52.070;20.804;2024-01-07T09:35:00;100777.21;;;-5.49;84.33
75536;BME280;64119;52.070;20.804;2024-01-07T09:37:28;100778.33;;;-5.50;84.36
75536;BME280;64119;52.070;20.804;2024-01-07T09:39:56;100775.73;;;-5.50;84.12
75536;BME280;64119;52.070;20.804;2024-01-07T09:42:24;100774.65;;;-5.50;84.29
75536;BME280;64119;52.070;20.804;2024-01-07T09:44:51;100775.41;;;-5.54;84.11
75536;BME280;64119;52.070;20.804;2024-01-07T09:47:20;100769.70;;;-5.54;84.20
75536;BME280;64119;52.070;20.804;2024-01-07T09:49:48;100766.67;;;-5.55;84.06
75536;BME280;64119;52.070;20.804;2024-01-07T09:52:16;100767.16;;;-5.55;84.29
75536;BME280;64119;52.070;20.804;2024-01-07T09:54:48;100771.27;;;-5.54;83.81
75536;BME280;64119;52.070;20.804;2024-01-07T09:57:19;100771.06;;;-5.53;83.56
75536;BME280;64119;52.070;20.804;2024-01-07T09:59:47;100773.55;;;-5.52;84.37
75536;BME280;64119;52.070;20.804;2024-01-07T10:02:15;100770.55;;;-5.50;83.77
75536;BME280;64119;52.070;20.804;2024-01-07T10:04:43;100769.16;;;-5.53;83.63
75536;BME280;64119;52.070;20.804;2024-01-07T10:07:13;100771.48;;;-5.52;83.93
75536;BME280;64119;52.070;20.804;2024-01-07T10:09:41;100772.83;;;-5.51;83.65
75536;BME280;64119;52.070;20.804;2024-01-07T10:12:12;100773.92;;;-5.49;84.16
75536;BME280;64119;52.070;20.804;2024-01-07T10:14:40;100774.14;;;-5.46;84.11
75536;BME280;64119;52.070;20.804;2024-01-07T10:17:15;100773.66;;;-5.47;84.14
75536;BME280;64119;52.070;20.804;2024-01-07T10:19:44;100770.58;;;-5.47;84.04
75536;BME280;64119;52.070;20.804;2024-01-07T10:22:14;100771.14;;;-5.48;84.01
75536;BME280;64119;52.070;20.804;2024-01-07T10:24:43;100767.60;;;-5.50;83.53
75536;BME280;64119;52.070;20.804;2024-01-07T10:27:12;100767.40;;;-5.46;84.44
75536;BME280;64119;52.070;20.804;2024-01-07T10:29:41;100769.83;;;-5.43;84.40
75536;BME280;64119;52.070;20.804;2024-01-07T10:32:08;100765.42;;;-5.44;83.43
75536;BME280;64119;52.070;20.804;2024-01-07T10:34:37;100767.83;;;-5.47;83.29
75536;BME280;64119;52.070;20.804;2024-01-07T10:37:05;100766.34;;;-5.52;83.34
75536;BME280;64119;52.070;20.804;2024-01-07T10:39:33;100764.91;;;-5.51;83.76
75536;BME280;64119;52.070;20.804;2024-01-07T10:42:01;100765.89;;;-5.50;84.08
75536;BME280;64119;52.070;20.804;2024-01-07T10:44:32;100766.03;;;-5.49;84.31
75536;BME280;64119;52.070;20.804;2024-01-07T10:47:03;100761.14;;;-5.52;84.25
75536;BME280;64119;52.070;20.804;2024-01-07T10:49:35;100767.12;;;-5.47;84.26
75536;BME280;64119;52.070;20.804;2024-01-07T10:52:08;100773.80;;;-5.50;83.56
75536;BME280;64119;52.070;20.804;2024-01-07T10:54:37;100771.86;;;-5.52;83.84
75536;BME280;64119;52.070;20.804;2024-01-07T10:57:27;100774.53;;;-5.54;83.50
75536;BME280;64119;52.070;20.804;2024-01-07T11:00:00;100777.14;;;-5.54;83.89
75536;BME280;64119;52.070;20.804;2024-01-07T11:02:29;100776.21;;;-5.57;83.66
75536;BME280;64119;52.070;20.804;2024-01-07T11:05:11;100776.38;;;-5.57;83.66
75536;BME280;64119;52.070;20.804;2024-01-07T11:07:55;100776.23;;;-5.57;83.43
75536;BME280;64119;52.070;20.804;2024-01-07T11:10:31;100777.64;;;-5.54;83.74
75536;BME280;64119;52.070;20.804;2024-01-07T11:13:37;100775.15;;;-5.53;83.83
75536;BME280;64119;52.070;20.804;2024-01-07T11:16:09;100775.72;;;-5.50;83.46
75536;BME280;64119;52.070;20.804;2024-01-07T11:18:50;100773.49;;;-5.47;83.39
75536;BME280;64119;52.070;20.804;2024-01-07T11:21:23;100775.79;;;-5.45;83.27
75536;BME280;64119;52.070;20.804;2024-01-07T11:23:52;100768.59;;;-5.46;82.57
75536;BME280;64119;52.070;20.804;2024-01-07T11:26:21;100770.73;;;-5.47;82.64
75536;BME280;64119;52.070;20.804;2024-01-07T11:29:00;100773.90;;;-5.48;82.39
75536;BME280;64119;52.070;20.804;2024-01-07T11:31:47;100772.16;;;-5.45;82.53
75536;BME280;64119;52.070;20.804;2024-01-07T11:34:43;100769.00;;;-5.37;82.89
75536;BME280;64119;52.070;20.804;2024-01-07T11:37:14;100767.27;;;-5.30;82.20
75536;BME280;64119;52.070;20.804;2024-01-07T11:39:43;100768.84;;;-5.23;82.69
75536;BME280;64119;52.070;20.804;2024-01-07T11:42:12;100769.16;;;-5.20;83.00
75536;BME280;64119;52.070;20.804;2024-01-07T11:45:00;100768.86;;;-5.20;82.73
75536;BME280;64119;52.070;20.804;2024-01-07T11:47:29;100771.96;;;-5.20;82.80
75536;BME280;64119;52.070;20.804;2024-01-07T11:49:58;100769.35;;;-5.20;83.09
75536;BME280;64119;52.070;20.804;2024-01-07T11:52:28;100770.28;;;-5.21;82.88
75536;BME280;64119;52.070;20.804;2024-01-07T11:54:57;100765.60;;;-5.24;83.21
75536;BME280;64119;52.070;20.804;2024-01-07T11:57:25;100764.71;;;-5.33;82.47
75536;BME280;64119;52.070;20.804;2024-01-07T11:59:55;100766.65;;;-5.34;83.47
75536;BME280;64119;52.070;20.804;2024-01-07T12:02:23;100771.52;;;-5.35;83.85
75536;BME280;64119;52.070;20.804;2024-01-07T12:04:51;100770.67;;;-5.32;83.38
75536;BME280;64119;52.070;20.804;2024-01-07T12:07:19;100769.48;;;-5.32;83.38
75536;BME280;64119;52.070;20.804;2024-01-07T12:09:55;100770.42;;;-5.34;82.96
75536;BME280;64119;52.070;20.804;2024-01-07T12:12:26;100770.98;;;-5.39;82.69
75536;BME280;64119;52.070;20.804;2024-01-07T12:14:55;100771.81;;;-5.41;82.75
75536;BME280;64119;52.070;20.804;2024-01-07T12:17:23;100774.40;;;-5.41;82.71
75536;BME280;64119;52.070;20.804;2024-01-07T12:19:51;100769.48;;;-5.40;82.78
75536;BME280;64119;52.070;20.804;2024-01-07T12:22:19;100771.52;;;-5.39;81.84
75536;BME280;64119;52.070;20.804;2024-01-07T12:24:59;100772.77;;;-5.36;81.82
75536;BME280;64119;52.070;20.804;2024-01-07T12:27:27;100774.69;;;-5.33;82.27
75536;BME280;64119;52.070;20.804;2024-01-07T12:29:58;100775.85;;;-5.29;81.93
75536;BME280;64119;52.070;20.804;2024-01-07T12:32:28;100781.42;;;-5.27;82.19
75536;BME280;64119;52.070;20.804;2024-01-07T12:34:59;100784.02;;;-5.27;82.64
75536;BME280;64119;52.070;20.804;2024-01-07T12:37:28;100786.66;;;-5.31;82.30
75536;BME280;64119;52.070;20.804;2024-01-07T12:39:56;100783.72;;;-5.31;82.70
75536;BME280;64119;52.070;20.804;2024-01-07T12:42:24;100786.91;;;-5.33;82.24
75536;BME280;64119;52.070;20.804;2024-01-07T12:44:51;100788.34;;;-5.34;82.63
75536;BME280;64119;52.070;20.804;2024-01-07T12:47:19;100791.36;;;-5.32;82.98
75536;BME280;64119;52.070;20.804;2024-01-07T12:49:47;100795.50;;;-5.36;82.24